Time;durP1;ratioP1;P1;durP2;ratioP2;P2;SDS_P1;SDS_P2;PMS_P1;PMS_P2;Temp;Humidity;BMP_temperature;BMP_pressure;BME280_temperature;BME280_humidity;BME280_pressure;Samples;Min_cycle;Max_cycle;Signal;HPM_P1;HPM_P2
2022/01/14 00:00:55;;;;;;;41.72;18.15;;;;;;;-143.84;78.25;45302.34;5091231;28;20198;-68
2022/01/14 00:03:22;;;;;;;36.40;17.15;;;;;;;-143.84;78.14;45298.53;5090666;28;20226;-67
2022/01/14 00:05:49;;;;;;;35.03;17.15;;;;;;;-143.84;78.00;45294.72;5090931;28;20632;-67
2022/01/14 00:08:18;;;;;;;36.38;19.38;;;;;;;-143.84;78.43;45321.38;5090878;28;20342;-68
2022/01/14 00:10:49;;;;;;;31.70;17.48;;;;;;;-143.84;78.31;45290.91;5090917;28;20675;-67
2022/01/14 00:13:39;;;;;;;32.70;17.38;;;;;;;-143.84;78.08;45315.66;5090943;28;20354;-68
2022/01/14 00:16:06;;;;;;;23.85;15.05;;;;;;;-143.84;78.49;45289.00;5090794;28;20673;-67
2022/01/14 00:18:33;;;;;;;33.88;17.40;;;;;;;-143.84;79.02;45279.47;5090765;28;20267;-67
2022/01/14 00:21:01;;;;;;;34.90;17.23;;;;;;;-143.84;78.74;45308.03;5090895;28;20205;-67
2022/01/14 00:23:32;;;;;;;33.75;19.23;;;;;;;-143.84;78.55;45327.09;5090673;28;20198;-68
2022/01/14 00:31:42;;;;;;;35.88;16.95;;;;;;;-143.84;79.20;45304.25;5089367;28;20560;-68
2022/01/14 00:34:10;;;;;;;32.97;18.40;;;;;;;-143.84;79.03;45315.66;5090810;28;20197;-68
2022/01/14 00:36:37;;;;;;;33.55;17.17;;;;;;;-143.84;79.42;45319.47;5089968;28;20194;-68
2022/01/14 00:39:05;;;;;;;34.17;18.48;;;;;;;-143.84;79.38;45308.03;5089863;28;20263;-67
2022/01/14 00:41:32;;;;;;;34.42;19.63;;;;;;;-143.84;79.83;45327.09;5090257;28;20199;-68
2022/01/14 00:44:01;;;;;;;38.42;17.90;;;;;;;-143.84;79.70;45285.19;5090301;28;20274;-68
2022/01/14 00:46:30;;;;;;;39.90;18.67;;;;;;;-143.84;79.80;45313.75;5087839;28;20226;-68
2022/01/14 00:48:57;;;;;;;33.17;18.25;;;;;;;-143.84;79.51;45306.13;5090362;28;20433;-67
2022/01/14 00:51:25;;;;;;;32.78;16.70;;;;;;;-143.84;79.08;45308.03;5090100;28;20202;-68
2022/01/14 00:53:52;;;;;;;30.35;16.98;;;;;;;-143.84;79.49;45327.09;5090113;28;20190;-68
2022/01/14 00:56:27;;;;;;;42.53;19.85;;;;;;;-143.84;79.40;45292.81;5090024;28;20213;-68
2022/01/14 01:01:42;;;;;;;36.38;18.02;;;;;;;-143.84;79.59;45317.56;5089830;28;20233;-68
2022/01/14 01:04:10;;;;;;;35.03;18.20;;;;;;;-143.84;79.36;45315.66;5089905;28;20194;-68
2022/01/14 01:06:37;;;;;;;33.55;17.80;;;;;;;-143.84;78.99;45296.63;5089326;28;20229;-68
2022/01/14 01:09:09;;;;;;;31.90;16.38;;;;;;;-143.84;78.94;45292.81;5089484;28;20194;-68
2022/01/14 01:11:39;;;;;;;37.13;18.88;;;;;;;-143.84;78.71;45300.44;5089916;28;20277;-68
2022/01/14 01:14:11;;;;;;;34.92;17.85;;;;;;;-143.84;78.73;45313.75;5089833;28;20194;-68
2022/01/14 01:16:40;;;;;;;33.97;16.95;;;;;;;-143.84;78.94;45287.09;5089626;28;20213;-68
2022/01/14 01:19:07;;;;;;;41.80;19.85;;;;;;;-143.84;78.98;45304.25;5089589;28;20660;-68
2022/01/14 01:21:35;;;;;;;36.63;19.70;;;;;;;-143.84;78.84;45304.25;5089613;28;20288;-68
2022/01/14 01:24:02;;;;;;;37.65;16.67;;;;;;;-143.84;78.68;45311.84;5089586;28;20186;-68
2022/01/14 01:26:33;;;;;;;35.38;17.75;;;;;;;-143.84;78.62;45296.63;5089747;28;20218;-68
2022/01/14 01:29:04;;;;;;;35.67;18.95;;;;;;;-143.84;78.74;45292.81;5089326;28;20198;-68
2022/01/14 01:31:38;;;;;;;35.63;16.80;;;;;;;-143.84;78.93;45289.00;5089636;28;20225;-68
2022/01/14 01:34:08;;;;;;;35.72;18.23;;;;;;;-143.84;79.05;45287.09;5089282;28;20385;-68
2022/01/14 01:36:36;;;;;;;31.98;19.70;;;;;;;-143.84;78.93;45294.72;5089391;28;20614;-68
2022/01/14 01:39:07;;;;;;;38.80;19.75;;;;;;;-143.84;79.02;45313.75;5089256;28;20201;-68
2022/01/14 01:41:35;;;;;;;37.28;19.42;;;;;;;-143.84;78.44;45296.63;5089659;28;20205;-68
2022/01/14 01:44:06;;;;;;;40.28;19.80;;;;;;;-143.84;78.72;45300.44;5089278;28;20247;-67
2022/01/14 01:46:33;;;;;;;32.30;18.55;;;;;;;-143.84;78.77;45292.81;5089238;28;20221;-67
2022/01/14 01:49:00;;;;;;;40.00;18.30;;;;;;;-143.84;78.58;45281.38;5089417;28;20198;-67
2022/01/14 01:51:29;;;;;;;34.33;18.40;;;;;;;-143.84;78.75;45296.63;5089876;28;20197;-67
2022/01/14 01:53:56;;;;;;;42.75;19.73;;;;;;;-143.84;79.05;45300.44;5089302;28;20197;-67
2022/01/14 01:56:23;;;;;;;36.85;19.92;;;;;;;-143.84;78.68;45306.13;5089454;28;20202;-67
2022/01/14 01:58:50;;;;;;;39.25;19.40;;;;;;;-143.84;79.05;45287.09;5089261;28;20194;-67
2022/01/14 02:01:18;;;;;;;37.97;17.83;;;;;;;-143.84;78.87;45321.38;5089298;28;20217;-67
2022/01/14 02:03:46;;;;;;;40.47;19.58;;;;;;;-143.84;78.50;45285.19;5089387;28;20202;-67
2022/01/14 02:06:13;;;;;;;30.10;17.25;;;;;;;-143.84;78.27;45309.94;5089229;28;20234;-67
2022/01/14 02:08:42;;;;;;;33.97;17.65;;;;;;;-143.84;78.63;45279.47;5089395;28;20651;-67
2022/01/14 02:11:09;;;;;;;38.22;18.95;;;;;;;-143.84;78.60;45285.19;5089384;28;20255;-67
2022/01/14 02:13:36;;;;;;;33.78;17.58;;;;;;;-143.84;78.28;45317.56;5089196;28;20543;-67
2022/01/14 02:16:18;;;;;;;32.53;16.88;;;;;;;-143.84;78.17;45311.84;5089132;28;20563;-67
2022/01/14 02:19:10;;;;;;;30.73;14.90;;;;;;;-143.84;78.32;45304.25;5089290;28;20202;-67
2022/01/14 02:24:35;;;;;;;34.65;17.70;;;;;;;-143.84;78.03;45289.00;5089203;28;20197;-67
2022/01/14 02:27:02;;;;;;;26.52;15.30;;;;;;;-143.84;77.87;45294.72;5089352;28;20225;-67
2022/01/14 02:29:29;;;;;;;33.95;17.05;;;;;;;-143.84;78.08;45311.84;5088154;28;20224;-67
2022/01/14 02:31:56;;;;;;;36.05;17.88;;;;;;;-143.84;78.05;45287.09;5089157;28;20255;-67
2022/01/14 02:34:24;;;;;;;31.80;16.13;;;;;;;-143.84;77.67;45277.56;5087975;28;20251;-67
2022/01/14 02:36:53;;;;;;;34.55;17.05;;;;;;;-143.84;77.46;45315.66;5088363;28;20198;-67
2022/01/14 02:39:22;;;;;;;35.72;17.20;;;;;;;-143.84;77.40;45321.38;5087876;28;20581;-67
2022/01/14 02:41:52;;;;;;;31.27;15.75;;;;;;;-143.84;77.17;45313.75;5087706;28;20194;-67
2022/01/14 02:44:24;;;;;;;39.90;17.70;;;;;;;-143.84;77.26;45277.56;5088340;28;20202;-67
2022/01/14 02:46:55;;;;;;;31.30;16.85;;;;;;;-143.84;77.43;45304.25;5088495;28;20225;-67
2022/01/14 02:49:24;;;;;;;32.08;15.35;;;;;;;-143.84;77.06;45346.13;5088341;28;20198;-67
2022/01/14 02:51:53;;;;;;;31.55;14.77;;;;;;;-143.84;77.09;45289.00;5088722;28;20201;-67
2022/01/14 02:54:23;;;;;;;30.15;16.80;;;;;;;-143.84;77.21;45287.09;5088805;28;20227;-67
2022/01/14 02:56:52;;;;;;;34.88;16.55;;;;;;;-143.84;76.86;45306.13;5088806;28;20630;-67
2022/01/14 02:59:21;;;;;;;33.03;16.38;;;;;;;-143.84;77.10;45292.81;5088712;28;20623;-67
2022/01/14 03:01:50;;;;;;;35.47;17.25;;;;;;;-143.84;76.97;45313.75;5088520;28;20248;-67
2022/01/14 03:04:20;;;;;;;31.58;16.80;;;;;;;-143.84;76.83;45250.91;5089206;28;20194;-67
2022/01/14 03:06:48;;;;;;;30.42;16.02;;;;;;;-143.84;76.67;45309.94;5088787;28;20232;-67
2022/01/14 03:09:16;;;;;;;30.98;15.75;;;;;;;-143.84;76.51;45309.94;5088820;28;20201;-67
2022/01/14 03:11:48;;;;;;;35.58;16.63;;;;;;;-143.84;76.72;45323.28;5092201;28;20194;-67
2022/01/14 03:14:21;;;;;;;28.00;14.15;;;;;;;-143.84;76.58;45309.94;5092518;28;20197;-67
2022/01/14 03:16:49;;;;;;;25.45;14.88;;;;;;;-143.84;76.65;45277.56;5091990;28;20206;-67
2022/01/14 03:19:20;;;;;;;23.70;12.63;;;;;;;-143.84;76.72;45306.13;5092072;28;20604;-67
2022/01/14 03:21:50;;;;;;;29.88;14.63;;;;;;;-143.84;76.37;45323.28;5092159;28;20194;-67
2022/01/14 03:24:22;;;;;;;30.05;15.02;;;;;;;-143.84;76.63;45319.47;5091958;28;20198;-67
2022/01/14 03:26:51;;;;;;;32.08;17.00;;;;;;;-143.84;76.41;45325.19;5091668;28;21037;-67
2022/01/14 03:29:20;;;;;;;30.35;16.58;;;;;;;-143.84;76.32;45317.56;5091755;28;20198;-67
2022/01/14 03:31:48;;;;;;;26.17;14.80;;;;;;;-143.84;76.34;45304.25;5091903;28;20189;-67
2022/01/14 03:34:15;;;;;;;33.17;16.98;;;;;;;-143.84;76.02;45294.72;5091445;28;20202;-67
2022/01/14 03:36:43;;;;;;;25.55;13.95;;;;;;;-143.84;75.64;45304.25;5091912;28;20981;-67
2022/01/14 03:39:10;;;;;;;30.48;14.68;;;;;;;-143.84;75.77;45296.63;5091543;28;20205;-67
2022/01/14 03:41:39;;;;;;;31.92;15.80;;;;;;;-143.84;75.68;45332.81;5091431;28;20194;-67
2022/01/14 03:44:06;;;;;;;29.38;14.80;;;;;;;-143.84;75.83;45252.81;5090865;28;20194;-67
2022/01/14 03:46:33;;;;;;;29.42;16.33;;;;;;;-143.84;75.61;45292.81;5091128;28;20225;-67
2022/01/14 03:49:01;;;;;;;35.13;16.55;;;;;;;-143.84;75.63;45306.13;5090560;28;20198;-67
2022/01/14 03:51:28;;;;;;;36.90;17.20;;;;;;;-143.84;75.51;45296.63;5091537;28;20194;-67
2022/01/14 03:53:56;;;;;;;35.58;16.88;;;;;;;-143.84;75.54;45277.56;5091109;28;20238;-67
2022/01/14 03:56:25;;;;;;;34.60;17.83;;;;;;;-143.84;75.23;45315.66;5091562;28;20190;-67
2022/01/14 03:58:55;;;;;;;29.10;16.10;;;;;;;-143.84;75.30;45279.47;5091717;28;20194;-67
2022/01/14 04:01:23;;;;;;;35.25;16.27;;;;;;;-143.84;75.46;45309.94;5091046;28;20202;-67
2022/01/14 04:03:50;;;;;;;28.38;15.48;;;;;;;-143.84;75.19;45302.34;5091712;28;20209;-67
2022/01/14 04:06:19;;;;;;;28.00;15.85;;;;;;;-143.84;75.46;45269.97;5091436;28;20226;-67
2022/01/14 04:08:46;;;;;;;31.43;15.93;;;;;;;-143.84;74.91;45300.44;5091606;28;20202;-68
2022/01/14 04:11:14;;;;;;;34.95;16.02;;;;;;;-143.84;74.73;45262.34;5091234;28;20489;-67
2022/01/14 04:13:48;;;;;;;26.75;14.77;;;;;;;-143.84;74.82;45308.03;5091199;28;20198;-67
2022/01/14 04:16:18;;;;;;;30.88;15.40;;;;;;;-143.84;74.71;45311.84;5090942;28;20208;-67
2022/01/14 04:18:46;;;;;;;28.25;15.05;;;;;;;-143.84;74.36;45285.19;5091019;28;20201;-67
2022/01/14 04:21:13;;;;;;;28.40;16.47;;;;;;;-143.84;73.93;45313.75;5090866;28;20947;-67
2022/01/14 04:23:40;;;;;;;36.53;16.03;;;;;;;-143.84;73.98;45266.16;5090778;28;21021;-67
2022/01/14 04:26:07;;;;;;;33.25;16.02;;;;;;;-143.84;74.09;45290.91;5090578;28;20467;-67
2022/01/14 04:28:35;;;;;;;27.37;14.80;;;;;;;-143.84;73.69;45290.91;5091157;28;20194;-67
2022/01/14 04:31:03;;;;;;;30.57;16.50;;;;;;;-143.84;73.16;45296.63;5090011;28;20455;-67
2022/01/14 04:33:33;;;;;;;31.63;15.20;;;;;;;-143.84;73.30;45285.19;5090252;28;20486;-67
2022/01/14 04:36:01;;;;;;;35.43;15.60;;;;;;;-143.84;73.08;45275.66;5090664;28;20436;-67
2022/01/14 04:38:30;;;;;;;28.73;15.50;;;;;;;-143.84;72.79;45292.81;5090870;28;20455;-67
2022/01/14 04:40:58;;;;;;;26.45;15.40;;;;;;;-143.84;72.53;45277.56;5090655;28;20465;-67
2022/01/14 04:43:25;;;;;;;32.35;15.40;;;;;;;-143.84;72.82;45302.34;5090775;28;20189;-66
2022/01/14 04:46:13;;;;;;;29.77;15.70;;;;;;;-143.84;72.56;45271.88;5090482;28;20202;-66
2022/01/14 04:48:42;;;;;;;31.10;16.83;;;;;;;-143.84;72.74;45308.03;5089876;28;21277;-66
2022/01/14 04:51:11;;;;;;;28.10;14.60;;;;;;;-143.84;72.63;45304.25;5090294;28;20868;-66
2022/01/14 04:53:39;;;;;;;26.80;13.52;;;;;;;-143.84;73.38;45296.63;5090163;28;20198;-66
2022/01/14 04:56:07;;;;;;;29.85;16.65;;;;;;;-143.84;72.97;45283.28;5090520;28;20202;-66
2022/01/14 04:58:34;;;;;;;29.17;15.43;;;;;;;-143.84;73.07;45266.16;5090105;28;20211;-66
2022/01/14 05:01:01;;;;;;;33.80;16.00;;;;;;;-143.84;73.14;45308.03;5090293;28;20194;-66
2022/01/14 05:03:30;;;;;;;30.50;15.25;;;;;;;-143.84;73.39;45289.00;5090619;28;20583;-66
2022/01/14 05:06:00;;;;;;;27.40;14.90;;;;;;;-143.84;72.80;45285.19;5090110;28;20202;-67
2022/01/14 05:08:35;;;;;;;31.10;15.80;;;;;;;-143.84;72.71;45289.00;5090003;28;20198;-66
2022/01/14 05:11:15;;;;;;;31.85;16.05;;;;;;;-143.84;73.11;45292.81;5090048;28;20250;-67
2022/01/14 05:13:42;;;;;;;33.67;16.48;;;;;;;-143.84;73.01;45304.25;5090129;28;20193;-67
2022/01/14 05:16:10;;;;;;;27.05;14.10;;;;;;;-143.84;72.54;45300.44;5090002;28;20194;-66
2022/01/14 05:18:38;;;;;;;25.20;14.80;;;;;;;-143.84;72.91;45273.78;5089945;28;20267;-66
2022/01/14 05:21:07;;;;;;;28.55;15.13;;;;;;;-143.84;72.46;45273.78;5089922;28;20284;-68
2022/01/14 05:23:34;;;;;;;33.13;15.10;;;;;;;-143.84;72.22;45277.56;5089540;28;20209;-66
2022/01/14 05:26:02;;;;;;;25.40;13.30;;;;;;;-143.84;71.95;45281.38;5090041;28;20190;-68
2022/01/14 05:28:29;;;;;;;27.90;14.83;;;;;;;-143.84;72.42;45298.53;5089702;28;20435;-67
2022/01/14 05:30:57;;;;;;;26.60;14.38;;;;;;;-143.84;71.68;45283.28;5089319;28;20440;-67
2022/01/14 05:33:24;;;;;;;32.97;14.77;;;;;;;-143.84;71.50;45266.16;5089001;28;20668;-66
2022/01/14 05:35:52;;;;;;;27.63;14.93;;;;;;;-143.84;70.93;45296.63;5088944;28;20440;-66
2022/01/14 05:38:20;;;;;;;32.77;16.20;;;;;;;-143.84;70.87;45275.66;5089531;28;20955;-66
2022/01/14 05:40:48;;;;;;;28.60;13.90;;;;;;;-143.84;71.09;45289.00;5089955;28;20806;-77
2022/01/14 05:43:15;;;;;;;24.40;13.60;;;;;;;-143.84;70.55;45287.09;5089938;28;20566;-75
2022/01/14 05:45:42;;;;;;;25.60;14.50;;;;;;;-143.84;70.47;45289.00;5089638;28;20432;-75
2022/01/14 05:48:09;;;;;;;26.97;13.53;;;;;;;-143.84;70.63;45273.78;5089581;28;20479;-76
2022/01/14 05:50:37;;;;;;;23.90;14.13;;;;;;;-143.84;70.65;45296.63;5089103;28;20451;-73
2022/01/14 05:53:06;;;;;;;29.83;14.03;;;;;;;-143.84;70.54;45264.25;5089684;28;20441;-74
2022/01/14 05:55:35;;;;;;;25.90;14.40;;;;;;;-143.84;70.46;45308.03;5089209;28;20964;-73
2022/01/14 05:58:02;;;;;;;30.60;16.00;;;;;;;-143.84;70.32;45306.13;5089402;28;20436;-74
2022/01/14 06:00:29;;;;;;;28.27;15.40;;;;;;;-143.84;69.71;45269.97;5089423;28;20463;-74
2022/01/14 06:02:56;;;;;;;29.30;16.37;;;;;;;-143.84;69.61;45260.44;5088308;28;20517;-74
2022/01/14 06:05:27;;;;;;;28.07;16.80;;;;;;;-143.84;69.41;45319.47;5088483;28;20436;-74
2022/01/14 06:07:54;;;;;;;29.90;14.40;;;;;;;-143.84;69.54;45275.66;5089364;28;20584;-74
2022/01/14 06:10:22;;;;;;;30.70;13.40;;;;;;;-143.84;68.72;45268.06;5089101;28;20523;-76
2022/01/14 06:12:51;;;;;;;29.33;14.57;;;;;;;-143.84;68.79;45252.81;5089502;28;20451;-73
2022/01/14 06:15:18;;;;;;;23.90;13.37;;;;;;;-143.84;68.09;45290.91;5086931;28;20466;-75
2022/01/14 06:17:46;;;;;;;27.67;14.70;;;;;;;-143.84;67.78;45285.19;5088882;28;20446;-75
2022/01/14 06:20:14;;;;;;;32.35;15.20;;;;;;;-143.84;67.71;45277.56;5089243;28;20443;-75
2022/01/14 06:22:42;;;;;;;29.90;15.00;;;;;;;-143.84;67.70;45302.34;5088676;28;20267;-75
2022/01/14 06:25:10;;;;;;;26.40;14.00;;;;;;;-143.84;66.93;45275.66;5089617;28;20640;-75
2022/01/14 06:27:38;;;;;;;28.63;16.23;;;;;;;-143.84;67.02;45277.56;5087149;28;20483;-75
2022/01/14 06:30:08;;;;;;;36.30;16.00;;;;;;;-143.84;67.18;45309.94;5087877;28;20432;-72
2022/01/14 06:32:41;;;;;;;31.37;15.13;;;;;;;-143.84;66.64;45289.00;5088236;28;21338;-73
2022/01/14 06:35:09;;;;;;;27.57;15.20;;;;;;;-143.84;66.06;45292.81;5088386;28;20439;-73
2022/01/14 06:37:36;;;;;;;32.57;15.27;;;;;;;-143.84;65.60;45281.38;5088311;28;21023;-73
2022/01/14 06:40:05;;;;;;;37.90;19.17;;;;;;;-143.84;65.33;45273.78;5088643;28;20439;-73
2022/01/14 06:42:32;;;;;;;22.07;13.10;;;;;;;-143.84;64.30;45271.88;5087779;28;20428;-73
2022/01/14 06:45:00;;;;;;;33.77;13.50;;;;;;;-143.84;63.87;45290.91;5089244;28;20436;-73
2022/01/14 06:47:29;;;;;;;25.70;11.53;;;;;;;-143.84;62.83;45266.16;5091829;28;20563;-73
2022/01/14 06:49:56;;;;;;;25.37;13.53;;;;;;;-143.84;62.28;45290.91;5091228;28;20471;-73
2022/01/14 06:52:24;;;;;;;26.10;13.87;;;;;;;-143.84;61.79;45294.72;5092323;28;20448;-73
2022/01/14 06:54:51;;;;;;;32.40;14.47;;;;;;;-143.84;61.37;45247.09;5092381;28;20451;-73
2022/01/14 06:57:19;;;;;;;38.87;14.83;;;;;;;-143.84;60.79;45273.78;5092766;28;20434;-73
2022/01/14 06:59:46;;;;;;;23.30;11.80;;;;;;;-143.84;59.97;45250.91;5092606;28;20479;-73
2022/01/14 07:02:13;;;;;;;28.67;12.97;;;;;;;-143.84;59.64;45266.16;5092305;28;21332;-73
2022/01/14 07:04:42;;;;;;;25.60;13.77;;;;;;;-143.84;59.20;45271.88;5092422;28;20428;-73
2022/01/14 07:07:10;;;;;;;33.03;16.93;;;;;;;-143.84;58.80;45254.72;5091645;28;20459;-73
2022/01/14 07:09:55;;;;;;;27.47;14.10;;;;;;;-143.84;58.38;45254.72;5092516;28;20442;-76
2022/01/14 07:12:23;;;;;;;32.53;15.20;;;;;;;-143.84;57.59;45258.53;5092966;28;20444;-75
2022/01/14 07:14:50;;;;;;;24.23;13.00;;;;;;;-143.84;57.39;45239.50;5092345;28;20557;-75
2022/01/14 07:17:17;;;;;;;35.83;13.70;;;;;;;-143.84;57.43;45277.56;5091614;28;20508;-75
2022/01/14 07:19:49;;;;;;;22.73;14.00;;;;;;;-143.84;57.21;45254.72;5090264;28;20440;-75
2022/01/14 07:22:16;;;;;;;30.83;13.80;;;;;;;-143.84;56.87;45266.16;5092124;28;20442;-75
2022/01/14 07:24:43;;;;;;;33.93;14.47;;;;;;;-143.84;56.11;45249.00;5092302;28;20789;-75
2022/01/14 07:27:11;;;;;;;21.50;12.63;;;;;;;-143.84;56.45;45243.31;5092291;28;20860;-75
2022/01/14 07:29:38;;;;;;;23.13;14.20;;;;;;;-143.84;55.91;45266.16;5091942;28;20440;-75
2022/01/14 07:32:06;;;;;;;25.33;14.47;;;;;;;-143.84;55.03;45235.69;5091831;28;20440;-75
2022/01/14 07:34:33;;;;;;;27.83;12.80;;;;;;;-143.84;54.86;45245.19;5091935;28;20469;-76
2022/01/14 07:37:02;;;;;;;21.70;12.90;;;;;;;-143.84;54.64;45239.50;5091761;28;21026;-76
2022/01/14 07:39:29;;;;;;;20.90;12.77;;;;;;;-143.84;54.18;45254.72;5091649;28;20448;-76
2022/01/14 07:41:57;;;;;;;22.70;13.73;;;;;;;-143.84;53.94;45233.78;5091765;28;20439;-76
2022/01/14 07:44:24;;;;;;;28.30;14.13;;;;;;;-143.84;54.08;45269.97;5091642;28;20447;-75
2022/01/14 07:46:51;;;;;;;22.23;12.33;;;;;;;-143.84;54.13;45264.25;5091272;28;20442;-75
2022/01/14 07:49:18;;;;;;;23.13;12.03;;;;;;;-143.84;53.47;45249.00;5091627;28;20441;-76
2022/01/14 07:51:45;;;;;;;38.57;15.40;;;;;;;-143.84;53.84;45266.16;5091306;28;20448;-75
2022/01/14 07:54:14;;;;;;;24.00;14.33;;;;;;;-143.84;53.08;45247.09;5091609;28;20436;-75
2022/01/14 07:56:45;;;;;;;20.97;12.83;;;;;;;-143.84;52.94;45260.44;5091134;28;20454;-76
2022/01/14 07:59:13;;;;;;;24.93;13.93;;;;;;;-143.84;52.93;45218.53;5091239;28;20440;-76
2022/01/14 08:01:42;;;;;;;25.93;13.03;;;;;;;-143.84;53.24;45252.81;5090924;28;20500;-76
2022/01/14 08:04:10;;;;;;;22.70;13.07;;;;;;;-143.84;52.27;45231.88;5091253;28;20511;-76
2022/01/14 08:06:44;;;;;;;21.50;12.53;;;;;;;-143.84;51.54;45247.09;5091706;28;20439;-76
2022/01/14 08:09:11;;;;;;;22.50;12.90;;;;;;;-143.84;51.96;45226.16;5091507;28;20516;-76
2022/01/14 08:11:40;;;;;;;23.83;14.80;;;;;;;-143.84;50.88;45235.69;5091664;28;20444;-76
2022/01/14 08:14:07;;;;;;;21.07;13.83;;;;;;;-143.84;51.55;45222.34;5091011;28;20490;-75
2022/01/14 08:16:35;;;;;;;22.10;13.53;;;;;;;-143.84;51.03;45247.09;5090805;28;20449;-76
2022/01/14 08:19:02;;;;;;;26.93;15.50;;;;;;;-143.84;51.13;45249.00;5090861;28;21000;-76
2022/01/14 08:21:29;;;;;;;20.20;12.17;;;;;;;-143.84;50.36;45222.34;5090950;28;21007;-76
2022/01/14 08:23:56;;;;;;;24.50;13.20;;;;;;;-143.84;49.67;45239.50;5090760;28;20432;-76
2022/01/14 08:26:24;;;;;;;20.80;12.50;;;;;;;-143.84;49.74;45231.88;5090425;28;20435;-74
2022/01/14 08:28:53;;;;;;;23.17;13.20;;;;;;;-143.84;49.34;45228.06;5089808;28;20479;-74
2022/01/14 08:31:22;;;;;;;25.37;13.90;;;;;;;-143.84;49.65;45222.34;5090168;28;20501;-74
2022/01/14 08:33:49;;;;;;;20.43;13.00;;;;;;;-143.84;49.30;45245.19;5090427;28;20499;-74
2022/01/14 08:36:16;;;;;;;26.40;14.07;;;;;;;-143.84;48.76;45209.03;5089951;28;20443;-74
2022/01/14 08:38:43;;;;;;;25.13;12.87;;;;;;;-143.84;48.77;45220.44;5090627;28;20481;-74
2022/01/14 08:41:11;;;;;;;22.00;11.37;;;;;;;-143.84;48.60;45233.78;5090334;28;20440;-74
2022/01/14 08:43:38;;;;;;;27.00;13.10;;;;;;;-143.84;48.61;45220.44;5090238;28;20450;-74
2022/01/14 08:46:06;;;;;;;40.60;22.90;;;;;;;-143.84;48.67;45262.34;5090436;28;20785;-74
2022/01/14 08:48:34;;;;;;;36.70;14.93;;;;;;;-143.84;48.46;45216.63;5090339;28;20864;-74
2022/01/14 08:51:02;;;;;;;26.53;13.57;;;;;;;-143.84;48.61;45228.06;5090376;28;20459;-74
2022/01/14 08:53:30;;;;;;;34.90;13.47;;;;;;;-143.84;48.51;45243.31;5090252;28;20455;-74
2022/01/14 08:55:57;;;;;;;16.97;11.27;;;;;;;-143.84;48.51;45205.22;5090031;28;20444;-74
2022/01/14 08:58:25;;;;;;;18.90;10.60;;;;;;;-143.84;48.99;45245.19;5090194;28;20983;-74
2022/01/14 09:00:52;;;;;;;20.77;12.20;;;;;;;-143.84;48.46;45239.50;5090266;28;20798;-74
2022/01/14 09:03:21;;;;;;;21.90;11.70;;;;;;;-143.84;49.14;45229.97;5089694;28;20479;-74
2022/01/14 09:05:48;;;;;;;15.40;11.03;;;;;;;-143.84;49.25;45214.72;5089867;28;21016;-74
2022/01/14 09:08:15;;;;;;;28.53;12.17;;;;;;;-143.84;50.02;45195.69;5089220;28;20479;-74
2022/01/14 09:10:42;;;;;;;25.57;12.17;;;;;;;-143.84;50.23;45243.31;5089943;28;20900;-75
2022/01/14 09:13:11;;;;;;;21.50;11.33;;;;;;;-143.84;50.88;45199.50;5090130;28;20535;-74
2022/01/14 09:15:39;;;;;;;28.93;10.50;;;;;;;-143.84;51.34;45231.88;5090177;28;20444;-74
2022/01/14 09:18:06;;;;;;;20.07;12.30;;;;;;;-143.84;51.32;45218.53;5089816;28;20432;-74
2022/01/14 09:20:35;;;;;;;17.03;10.30;;;;;;;-143.84;51.47;45231.88;5089850;28;20447;-74
2022/01/14 09:23:03;;;;;;;18.90;11.57;;;;;;;-143.84;51.49;45247.09;5089822;28;20440;-74
2022/01/14 09:25:30;;;;;;;18.77;12.03;;;;;;;-143.84;51.26;45199.50;5090271;28;20440;-74
2022/01/14 09:27:57;;;;;;;23.20;11.30;;;;;;;-143.84;50.99;45220.44;5089724;28;20475;-75
2022/01/14 09:30:25;;;;;;;21.03;11.20;;;;;;;-143.84;51.02;45220.44;5089773;28;20440;-74
2022/01/14 09:32:52;;;;;;;16.97;11.20;;;;;;;-143.84;50.99;45214.72;5089875;28;20857;-75
2022/01/14 09:35:20;;;;;;;22.97;12.90;;;;;;;-143.84;50.93;45226.16;5089409;28;20795;-74
2022/01/14 09:37:50;;;;;;;17.23;11.40;;;;;;;-143.84;50.42;45231.88;5089377;28;21293;-74
2022/01/14 09:40:18;;;;;;;24.87;11.93;;;;;;;-143.84;50.87;45197.59;5089263;28;20976;-75
2022/01/14 09:42:48;;;;;;;22.10;13.20;;;;;;;-143.84;50.97;45209.03;5089549;28;20444;-74
2022/01/14 09:45:16;;;;;;;24.37;12.60;;;;;;;-143.84;50.67;45203.31;5089072;28;20432;-75
2022/01/14 09:47:43;;;;;;;27.30;12.53;;;;;;;-143.84;51.15;45201.41;5088674;28;20484;-74
2022/01/14 09:50:11;;;;;;;24.30;12.40;;;;;;;-143.84;51.34;45197.59;5088738;28;20467;-75
2022/01/14 09:52:39;;;;;;;20.80;13.07;;;;;;;-143.84;50.96;45178.56;5088280;28;20448;-74
2022/01/14 09:55:08;;;;;;;21.87;13.30;;;;;;;-143.84;50.44;45212.84;5089128;28;20440;-74
2022/01/14 09:57:36;;;;;;;19.43;12.33;;;;;;;-143.84;50.62;45174.75;5089148;28;20862;-74
2022/01/14 10:00:05;;;;;;;16.90;11.57;;;;;;;-143.84;50.52;45195.69;5089317;28;20440;-74
2022/01/14 10:02:35;;;;;;;16.60;10.33;;;;;;;-143.84;50.82;45191.88;5088980;28;20487;-74
2022/01/14 10:05:04;;;;;;;22.13;11.07;;;;;;;-143.84;51.51;45197.59;5089523;28;20461;-74
2022/01/14 10:07:32;;;;;;;25.43;15.00;;;;;;;-143.84;51.36;45191.88;5089493;28;20432;-74
2022/01/14 10:10:00;;;;;;;19.97;12.43;;;;;;;-143.84;51.75;45199.50;5089228;28;20444;-74
2022/01/14 10:12:33;;;;;;;17.10;10.50;;;;;;;-143.84;51.26;45212.84;5089330;28;20443;-74
2022/01/14 10:15:02;;;;;;;22.30;11.10;;;;;;;-143.84;50.70;45216.63;5089142;28;20449;-74
2022/01/14 10:17:36;;;;;;;18.37;11.50;;;;;;;-143.84;51.80;45199.50;5089341;28;20432;-74
2022/01/14 10:20:06;;;;;;;15.30;9.40;;;;;;;-143.84;51.66;45186.16;5092527;28;20458;-74
2022/01/14 10:22:35;;;;;;;17.87;11.73;;;;;;;-143.84;52.38;45193.78;5093377;28;20450;-74
2022/01/14 10:25:05;;;;;;;18.10;11.87;;;;;;;-143.84;52.00;45188.06;5092399;28;20440;-74
2022/01/14 10:27:36;;;;;;;26.23;12.20;;;;;;;-143.84;52.16;45169.03;5092339;28;20440;-74
2022/01/14 10:30:16;;;;;;;16.93;10.87;;;;;;;-143.84;51.27;45172.84;5092934;28;20447;-74
2022/01/14 10:32:46;;;;;;;20.40;11.70;;;;;;;-143.84;51.45;45184.25;5093182;28;20440;-74
2022/01/14 10:35:16;;;;;;;15.50;10.33;;;;;;;-143.84;51.77;45224.25;5093183;28;20440;-74
2022/01/14 10:37:43;;;;;;;15.20;10.87;;;;;;;-143.84;52.05;45201.41;5093013;28;21038;-69
2022/01/14 10:40:15;;;;;;;21.23;10.37;;;;;;;-143.84;51.15;45189.97;5092826;28;20436;-69
2022/01/14 10:42:44;;;;;;;15.37;9.93;;;;;;;-143.84;52.01;45191.88;5092916;28;20505;-69
2022/01/14 10:45:22;;;;;;;17.93;9.07;;;;;;;-143.84;52.57;45214.72;5092878;28;20458;-69
2022/01/14 10:48:00;;;;;;;17.13;9.60;;;;;;;-143.84;53.19;45195.69;5092840;28;20447;-69
2022/01/14 10:50:30;;;;;;;15.00;9.73;;;;;;;-143.84;53.21;45188.06;5092500;28;20447;-69
2022/01/14 10:52:57;;;;;;;24.13;9.93;;;;;;;-143.84;53.48;45193.78;5092048;28;20440;-69
2022/01/14 10:55:33;;;;;;;16.70;9.97;;;;;;;-143.84;54.29;45163.31;5091557;28;20977;-69
2022/01/14 10:58:03;;;;;;;15.13;9.87;;;;;;;-143.84;54.15;45203.31;5091430;28;20500;-69
2022/01/14 11:00:39;;;;;;;17.37;9.70;;;;;;;-143.84;54.10;45197.59;5091949;28;20439;-69
2022/01/14 11:03:08;;;;;;;11.00;8.10;;;;;;;-143.84;54.73;45189.97;5091505;28;21189;-69
2022/01/14 11:05:35;;;;;;;13.93;8.43;;;;;;;-143.84;54.00;45186.16;5091864;28;20439;-69
2022/01/14 11:08:04;;;;;;;16.70;9.47;;;;;;;-143.84;54.31;45161.41;5092422;28;20567;-69
2022/01/14 11:10:33;;;;;;;15.60;9.50;;;;;;;-143.84;53.75;45201.41;5091530;28;20497;-69
2022/01/14 11:13:06;;;;;;;13.40;8.20;;;;;;;-143.84;54.15;45178.56;5092145;28;20432;-69
2022/01/14 11:15:34;;;;;;;16.43;8.83;;;;;;;-143.84;54.46;45205.22;5092015;28;20493;-69
2022/01/14 11:18:05;;;;;;;14.77;8.60;;;;;;;-143.84;55.09;45205.22;5092296;28;20432;-69
2022/01/14 11:20:37;;;;;;;15.67;7.70;;;;;;;-143.84;54.84;45241.41;5092226;28;20459;-68